sensor_id;sensor_type;location;lat;lon;timestamp;P1;durP1;ratioP1;P2;durP2;ratioP2
26042;SDS011;13818;52.156;5.382;2024-03-23T00:53:52;7.18;;;2.70;;
26042;SDS011;13818;52.156;5.382;2024-03-23T00:56:18;10.77;;;3.90;;
26042;SDS011;13818;52.156;5.382;2024-03-23T00:58:44;10.85;;;2.63;;
26042;SDS011;13818;52.156;5.382;2024-03-23T01:01:12;8.55;;;4.72;;
26042;SDS011;13818;52.156;5.382;2024-03-23T01:03:39;14.45;;;3.80;;
26042;SDS011;13818;52.156;5.382;2024-03-23T01:06:04;10.55;;;3.90;;
26042;SDS011;13818;52.156;5.382;2024-03-23T01:08:31;9.32;;;2.85;;
26042;SDS011;13818;52.156;5.382;2024-03-23T01:10:58;8.52;;;2.38;;
26042;SDS011;13818;52.156;5.382;2024-03-23T01:13:26;4.35;;;2.80;;
26042;SDS011;13818;52.156;5.382;2024-03-23T01:15:52;10.93;;;2.85;;
26042;SDS011;13818;52.156;5.382;2024-03-23T01:18:20;11.38;;;2.45;;
26042;SDS011;13818;52.156;5.382;2024-03-23T01:20:46;10.85;;;3.38;;
26042;SDS011;13818;52.156;5.382;2024-03-23T01:23:13;10.27;;;2.72;;
26042;SDS011;13818;52.156;5.382;2024-03-23T01:25:39;16.23;;;3.58;;
26042;SDS011;13818;52.156;5.382;2024-03-23T01:28:07;9.38;;;3.17;;
26042;SDS011;13818;52.156;5.382;2024-03-23T01:30:33;9.43;;;3.25;;
26042;SDS011;13818;52.156;5.382;2024-03-23T01:32:59;9.65;;;3.58;;
26042;SDS011;13818;52.156;5.382;2024-03-23T01:35:25;15.93;;;4.47;;
26042;SDS011;13818;52.156;5.382;2024-03-23T01:37:51;7.43;;;2.90;;
26042;SDS011;13818;52.156;5.382;2024-03-23T01:40:17;9.55;;;3.33;;
26042;SDS011;13818;52.156;5.382;2024-03-23T01:42:54;10.63;;;3.03;;
26042;SDS011;13818;52.156;5.382;2024-03-23T01:45:23;5.35;;;3.13;;
26042;SDS011;13818;52.156;5.382;2024-03-23T01:47:49;14.00;;;4.32;;
26042;SDS011;13818;52.156;5.382;2024-03-23T01:50:15;17.38;;;3.85;;
26042;SDS011;13818;52.156;5.382;2024-03-23T01:52:41;10.40;;;3.60;;
26042;SDS011;13818;52.156;5.382;2024-03-23T01:55:07;13.77;;;4.30;;
26042;SDS011;13818;52.156;5.382;2024-03-23T01:57:34;12.77;;;2.72;;
26042;SDS011;13818;52.156;5.382;2024-03-23T02:00:00;10.15;;;3.15;;
26042;SDS011;13818;52.156;5.382;2024-03-23T02:02:27;10.45;;;3.35;;
26042;SDS011;13818;52.156;5.382;2024-03-23T02:04:53;7.97;;;2.45;;
26042;SDS011;13818;52.156;5.382;2024-03-23T02:07:19;6.55;;;2.97;;
26042;SDS011;13818;52.156;5.382;2024-03-23T02:09:45;10.40;;;4.05;;
26042;SDS011;13818;52.156;5.382;2024-03-23T02:12:12;13.45;;;3.85;;
26042;SDS011;13818;52.156;5.382;2024-03-23T02:14:37;13.18;;;3.08;;
26042;SDS011;13818;52.156;5.382;2024-03-23T02:17:04;11.27;;;3.35;;
26042;SDS011;13818;52.156;5.382;2024-03-23T02:19:31;9.88;;;2.70;;
26042;SDS011;13818;52.156;5.382;2024-03-23T02:21:57;4.90;;;2.00;;
26042;SDS011;13818;52.156;5.382;2024-03-23T02:24:25;8.73;;;2.60;;
26042;SDS011;13818;52.156;5.382;2024-03-23T02:26:51;16.00;;;2.80;;
26042;SDS011;13818;52.156;5.382;2024-03-23T02:29:18;13.32;;;3.28;;
26042;SDS011;13818;52.156;5.382;2024-03-23T02:31:44;8.85;;;2.50;;
26042;SDS011;13818;52.156;5.382;2024-03-23T02:34:10;7.57;;;2.83;;
26042;SDS011;13818;52.156;5.382;2024-03-23T02:36:36;4.20;;;1.95;;
26042;SDS011;13818;52.156;5.382;2024-03-23T02:39:03;10.93;;;2.92;;
26042;SDS011;13818;52.156;5.382;2024-03-23T02:41:31;6.32;;;1.67;;
26042;SDS011;13818;52.156;5.382;2024-03-23T02:43:57;8.77;;;2.40;;
26042;SDS011;13818;52.156;5.382;2024-03-23T02:46:23;8.32;;;2.33;;
26042;SDS011;13818;52.156;5.382;2024-03-23T02:48:48;8.25;;;1.63;;
26042;SDS011;13818;52.156;5.382;2024-03-23T02:51:15;7.95;;;2.45;;
26042;SDS011;13818;52.156;5.382;2024-03-23T02:53:40;7.05;;;2.30;;
26042;SDS011;13818;52.156;5.382;2024-03-23T02:56:07;6.10;;;2.78;;
26042;SDS011;13818;52.156;5.382;2024-03-23T02:58:35;3.75;;;1.55;;
26042;SDS011;13818;52.156;5.382;2024-03-23T03:01:02;7.30;;;1.65;;
26042;SDS011;13818;52.156;5.382;2024-03-23T03:03:27;7.35;;;2.63;;
26042;SDS011;13818;52.156;5.382;2024-03-23T03:05:54;5.70;;;1.70;;
26042;SDS011;13818;52.156;5.382;2024-03-23T03:08:20;8.88;;;2.63;;
26042;SDS011;13818;52.156;5.382;2024-03-23T03:10:47;5.60;;;1.60;;
26042;SDS011;13818;52.156;5.382;2024-03-23T03:13:12;7.65;;;1.88;;
26042;SDS011;13818;52.156;5.382;2024-03-23T03:15:41;5.35;;;1.70;;
26042;SDS011;13818;52.156;5.382;2024-03-23T03:18:06;12.65;;;1.95;;
26042;SDS011;13818;52.156;5.382;2024-03-23T03:20:32;5.82;;;1.60;;
26042;SDS011;13818;52.156;5.382;2024-03-23T03:22:59;3.60;;;1.83;;
26042;SDS011;13818;52.156;5.382;2024-03-23T03:25:26;6.25;;;1.75;;
26042;SDS011;13818;52.156;5.382;2024-03-23T03:27:51;12.73;;;1.92;;
26042;SDS011;13818;52.156;5.382;2024-03-23T03:30:18;4.32;;;0.93;;
26042;SDS011;13818;52.156;5.382;2024-03-23T03:32:45;4.43;;;1.45;;
26042;SDS011;13818;52.156;5.382;2024-03-23T03:35:11;5.88;;;1.90;;
26042;SDS011;13818;52.156;5.382;2024-03-23T03:37:37;1.55;;;1.00;;
26042;SDS011;13818;52.156;5.382;2024-03-23T03:40:04;2.65;;;1.33;;
26042;SDS011;13818;52.156;5.382;2024-03-23T03:42:30;3.45;;;1.15;;
26042;SDS011;13818;52.156;5.382;2024-03-23T03:44:56;5.00;;;1.23;;
26042;SDS011;13818;52.156;5.382;2024-03-23T03:47:22;10.52;;;2.60;;
26042;SDS011;13818;52.156;5.382;2024-03-23T03:49:50;1.60;;;0.30;;
26042;SDS011;13818;52.156;5.382;2024-03-23T03:52:15;4.10;;;0.90;;
26042;SDS011;13818;52.156;5.382;2024-03-23T03:54:42;4.22;;;0.80;;
26042;SDS011;13818;52.156;5.382;2024-03-23T03:57:08;4.57;;;1.50;;
26042;SDS011;13818;52.156;5.382;2024-03-23T03:59:34;0.90;;;0.60;;
26042;SDS011;13818;52.156;5.382;2024-03-23T04:02:00;1.00;;;0.75;;
26042;SDS011;13818;52.156;5.382;2024-03-23T04:04:26;4.60;;;1.90;;
26042;SDS011;13818;52.156;5.382;2024-03-23T04:06:59;3.70;;;0.90;;
26042;SDS011;13818;52.156;5.382;2024-03-23T04:09:25;6.57;;;1.00;;
26042;SDS011;13818;52.156;5.382;2024-03-23T04:11:51;3.47;;;1.17;;
26042;SDS011;13818;52.156;5.382;2024-03-23T04:14:17;5.18;;;1.35;;
26042;SDS011;13818;52.156;5.382;2024-03-23T04:16:43;3.70;;;1.08;;
26042;SDS011;13818;52.156;5.382;2024-03-23T04:19:09;6.13;;;0.80;;
26042;SDS011;13818;52.156;5.382;2024-03-23T04:21:35;2.03;;;0.75;;
26042;SDS011;13818;52.156;5.382;2024-03-23T04:24:03;5.57;;;0.95;;
26042;SDS011;13818;52.156;5.382;2024-03-23T04:26:29;1.08;;;0.60;;
26042;SDS011;13818;52.156;5.382;2024-03-23T04:28:55;8.75;;;1.35;;
26042;SDS011;13818;52.156;5.382;2024-03-23T04:31:21;2.10;;;0.82;;
26042;SDS011;13818;52.156;5.382;2024-03-23T04:33:48;8.02;;;0.93;;
26042;SDS011;13818;52.156;5.382;2024-03-23T04:36:14;2.55;;;1.10;;
26042;SDS011;13818;52.156;5.382;2024-03-23T04:38:40;1.98;;;0.70;;
26042;SDS011;13818;52.156;5.382;2024-03-23T04:41:08;6.95;;;1.17;;
26042;SDS011;13818;52.156;5.382;2024-03-23T04:43:35;4.93;;;0.63;;
26042;SDS011;13818;52.156;5.382;2024-03-23T04:46:01;2.65;;;0.90;;
26042;SDS011;13818;52.156;5.382;2024-03-23T04:48:28;7.13;;;1.38;;
26042;SDS011;13818;52.156;5.382;2024-03-23T04:50:54;4.05;;;1.13;;
26042;SDS011;13818;52.156;5.382;2024-03-23T04:53:20;4.80;;;1.20;;
26042;SDS011;13818;52.156;5.382;2024-03-23T04:55:48;10.82;;;1.13;;
26042;SDS011;13818;52.156;5.382;2024-03-23T04:58:15;2.70;;;1.15;;
26042;SDS011;13818;52.156;5.382;2024-03-23T05:00:41;10.95;;;1.73;;
26042;SDS011;13818;52.156;5.382;2024-03-23T05:03:07;2.22;;;0.90;;
26042;SDS011;13818;52.156;5.382;2024-03-23T05:05:34;5.78;;;1.00;;
26042;SDS011;13818;52.156;5.382;2024-03-23T05:07:59;4.25;;;1.02;;
26042;SDS011;13818;52.156;5.382;2024-03-23T05:10:26;2.15;;;1.48;;
26042;SDS011;13818;52.156;5.382;2024-03-23T05:12:51;3.08;;;1.00;;
26042;SDS011;13818;52.156;5.382;2024-03-23T05:15:19;11.32;;;1.30;;
26042;SDS011;13818;52.156;5.382;2024-03-23T05:17:44;2.90;;;1.08;;
26042;SDS011;13818;52.156;5.382;2024-03-23T05:20:11;3.58;;;0.75;;
26042;SDS011;13818;52.156;5.382;2024-03-23T05:22:37;2.30;;;1.02;;
26042;SDS011;13818;52.156;5.382;2024-03-23T05:25:04;4.00;;;1.08;;
26042;SDS011;13818;52.156;5.382;2024-03-23T05:27:31;4.50;;;1.85;;
26042;SDS011;13818;52.156;5.382;2024-03-23T05:29:58;1.48;;;0.70;;
26042;SDS011;13818;52.156;5.382;2024-03-23T05:32:24;2.95;;;0.73;;
26042;SDS011;13818;52.156;5.382;2024-03-23T05:34:51;6.32;;;2.28;;
26042;SDS011;13818;52.156;5.382;2024-03-23T05:37:20;3.30;;;0.70;;
26042;SDS011;13818;52.156;5.382;2024-03-23T05:39:47;1.05;;;0.63;;
26042;SDS011;13818;52.156;5.382;2024-03-23T05:42:14;6.47;;;0.68;;
26042;SDS011;13818;52.156;5.382;2024-03-23T05:44:42;3.55;;;1.00;;
26042;SDS011;13818;52.156;5.382;2024-03-23T05:47:09;6.00;;;0.95;;
26042;SDS011;13818;52.156;5.382;2024-03-23T05:49:37;1.67;;;0.82;;
26042;SDS011;13818;52.156;5.382;2024-03-23T05:52:02;6.35;;;0.60;;
26042;SDS011;13818;52.156;5.382;2024-03-23T05:54:29;3.58;;;0.60;;
26042;SDS011;13818;52.156;5.382;2024-03-23T05:56:55;1.38;;;0.60;;
26042;SDS011;13818;52.156;5.382;2024-03-23T05:59:21;2.10;;;1.13;;
26042;SDS011;13818;52.156;5.382;2024-03-23T06:01:47;4.75;;;0.82;;
26042;SDS011;13818;52.156;5.382;2024-03-23T06:04:14;2.13;;;0.75;;
26042;SDS011;13818;52.156;5.382;2024-03-23T06:06:40;2.65;;;1.55;;
26042;SDS011;13818;52.156;5.382;2024-03-23T06:09:07;1.98;;;0.65;;
26042;SDS011;13818;52.156;5.382;2024-03-23T06:11:33;7.72;;;1.17;;
26042;SDS011;13818;52.156;5.382;2024-03-23T06:13:59;1.30;;;0.60;;
26042;SDS011;13818;52.156;5.382;2024-03-23T06:16:24;1.38;;;0.40;;
26042;SDS011;13818;52.156;5.382;2024-03-23T06:18:52;3.80;;;1.13;;
26042;SDS011;13818;52.156;5.382;2024-03-23T06:21:18;6.72;;;0.82;;
26042;SDS011;13818;52.156;5.382;2024-03-23T06:23:47;3.10;;;0.68;;
26042;SDS011;13818;52.156;5.382;2024-03-23T06:26:16;5.30;;;0.93;;
26042;SDS011;13818;52.156;5.382;2024-03-23T06:28:42;2.38;;;0.90;;
26042;SDS011;13818;52.156;5.382;2024-03-23T06:31:08;4.22;;;0.60;;
26042;SDS011;13818;52.156;5.382;2024-03-23T06:33:35;7.30;;;1.00;;
26042;SDS011;13818;52.156;5.382;2024-03-23T06:36:02;3.08;;;0.90;;
26042;SDS011;13818;52.156;5.382;2024-03-23T06:38:28;3.42;;;0.45;;
26042;SDS011;13818;52.156;5.382;2024-03-23T06:40:55;2.30;;;0.85;;
26042;SDS011;13818;52.156;5.382;2024-03-23T06:43:22;5.28;;;1.00;;
26042;SDS011;13818;52.156;5.382;2024-03-23T06:45:52;1.95;;;0.70;;
26042;SDS011;13818;52.156;5.382;2024-03-23T06:48:18;4.47;;;0.77;;
26042;SDS011;13818;52.156;5.382;2024-03-23T06:50:44;4.70;;;0.95;;
26042;SDS011;13818;52.156;5.382;2024-03-23T06:53:11;4.93;;;0.75;;
26042;SDS011;13818;52.156;5.382;2024-03-23T06:55:36;1.80;;;0.47;;
26042;SDS011;13818;52.156;5.382;2024-03-23T06:58:04;4.10;;;0.68;;
26042;SDS011;13818;52.156;5.382;2024-03-23T07:00:30;2.63;;;0.80;;
26042;SDS011;13818;52.156;5.382;2024-03-23T07:02:57;7.10;;;1.20;;
26042;SDS011;13818;52.156;5.382;2024-03-23T07:05:22;4.55;;;1.10;;
26042;SDS011;13818;52.156;5.382;2024-03-23T07:07:49;6.03;;;0.80;;
26042;SDS011;13818;52.156;5.382;2024-03-23T07:10:15;3.20;;;0.88;;
26042;SDS011;13818;52.156;5.382;2024-03-23T07:12:42;3.25;;;0.80;;
26042;SDS011;13818;52.156;5.382;2024-03-23T07:15:09;5.10;;;0.93;;
26042;SDS011;13818;52.156;5.382;2024-03-23T07:17:37;6.10;;;1.20;;
26042;SDS011;13818;52.156;5.382;2024-03-23T07:20:02;9.95;;;1.25;;
26042;SDS011;13818;52.156;5.382;2024-03-23T07:22:29;8.45;;;1.23;;
26042;SDS011;13818;52.156;5.382;2024-03-23T07:24:55;4.45;;;1.10;;
26042;SDS011;13818;52.156;5.382;2024-03-23T07:27:21;5.40;;;1.17;;
26042;SDS011;13818;52.156;5.382;2024-03-23T07:29:48;3.60;;;0.70;;
26042;SDS011;13818;52.156;5.382;2024-03-23T07:32:16;3.42;;;0.77;;
26042;SDS011;13818;52.156;5.382;2024-03-23T07:34:42;3.53;;;0.90;;
26042;SDS011;13818;52.156;5.382;2024-03-23T07:37:09;6.85;;;1.10;;
26042;SDS011;13818;52.156;5.382;2024-03-23T07:39:34;6.45;;;0.90;;
26042;SDS011;13818;52.156;5.382;2024-03-23T07:42:01;5.20;;;0.95;;
26042;SDS011;13818;52.156;5.382;2024-03-23T07:44:27;2.33;;;0.98;;
26042;SDS011;13818;52.156;5.382;2024-03-23T07:46:54;6.68;;;1.35;;
26042;SDS011;13818;52.156;5.382;2024-03-23T07:49:20;4.32;;;1.15;;
26042;SDS011;13818;52.156;5.382;2024-03-23T07:51:47;2.35;;;0.70;;
26042;SDS011;13818;52.156;5.382;2024-03-23T07:54:12;2.63;;;0.70;;
26042;SDS011;13818;52.156;5.382;2024-03-23T07:56:39;11.32;;;1.38;;
26042;SDS011;13818;52.156;5.382;2024-03-23T07:59:05;7.93;;;0.90;;
26042;SDS011;13818;52.156;5.382;2024-03-23T08:01:32;6.72;;;1.10;;
26042;SDS011;13818;52.156;5.382;2024-03-23T08:03:57;4.88;;;0.70;;
26042;SDS011;13818;52.156;5.382;2024-03-23T08:06:25;6.25;;;0.95;;
26042;SDS011;13818;52.156;5.382;2024-03-23T08:08:51;1.92;;;0.40;;
26042;SDS011;13818;52.156;5.382;2024-03-23T08:11:24;4.43;;;0.95;;
26042;SDS011;13818;52.156;5.382;2024-03-23T08:13:50;2.05;;;0.63;;
26042;SDS011;13818;52.156;5.382;2024-03-23T08:16:16;0.65;;;0.57;;
26042;SDS011;13818;52.156;5.382;2024-03-23T08:18:43;2.83;;;0.90;;
26042;SDS011;13818;52.156;5.382;2024-03-23T08:21:09;2.47;;;0.85;;
26042;SDS011;13818;52.156;5.382;2024-03-23T08:23:36;1.77;;;0.80;;
26042;SDS011;13818;52.156;5.382;2024-03-23T08:26:04;1.08;;;0.88;;
26042;SDS011;13818;52.156;5.382;2024-03-23T08:28:32;2.75;;;0.73;;
26042;SDS011;13818;52.156;5.382;2024-03-23T08:31:00;3.30;;;0.82;;
26042;SDS011;13818;52.156;5.382;2024-03-23T08:35:54;1.90;;;0.70;;
26042;SDS011;13818;52.156;5.382;2024-03-23T08:38:20;3.88;;;0.52;;
26042;SDS011;13818;52.156;5.382;2024-03-23T08:40:48;1.05;;;0.75;;
26042;SDS011;13818;52.156;5.382;2024-03-23T08:43:21;2.25;;;1.15;;
26042;SDS011;13818;52.156;5.382;2024-03-23T08:45:47;2.10;;;0.52;;
26042;SDS011;13818;52.156;5.382;2024-03-23T08:48:13;3.65;;;1.13;;
26042;SDS011;13818;52.156;5.382;2024-03-23T08:50:39;3.42;;;0.60;;
26042;SDS011;13818;52.156;5.382;2024-03-23T08:53:05;4.95;;;1.08;;
26042;SDS011;13818;52.156;5.382;2024-03-23T08:55:31;1.38;;;0.57;;
26042;SDS011;13818;52.156;5.382;2024-03-23T08:57:58;3.92;;;0.98;;
26042;SDS011;13818;52.156;5.382;2024-03-23T09:00:25;3.17;;;0.50;;
26042;SDS011;13818;52.156;5.382;2024-03-23T09:02:50;1.33;;;0.30;;
26042;SDS011;13818;52.156;5.382;2024-03-23T09:05:18;5.82;;;0.77;;
26042;SDS011;13818;52.156;5.382;2024-03-23T09:07:43;0.47;;;0.45;;
26042;SDS011;13818;52.156;5.382;2024-03-23T09:10:09;1.65;;;0.25;;
26042;SDS011;13818;52.156;5.382;2024-03-23T09:12:35;5.82;;;0.38;;
26042;SDS011;13818;52.156;5.382;2024-03-23T09:15:03;1.63;;;0.60;;
26042;SDS011;13818;52.156;5.382;2024-03-23T09:17:29;0.73;;;0.40;;
26042;SDS011;13818;52.156;5.382;2024-03-23T09:19:56;0.50;;;0.15;;
26042;SDS011;13818;52.156;5.382;2024-03-23T09:22:22;4.18;;;0.60;;
26042;SDS011;13818;52.156;5.382;2024-03-23T09:24:48;3.90;;;0.68;;
26042;SDS011;13818;52.156;5.382;2024-03-23T09:27:14;5.10;;;0.73;;
26042;SDS011;13818;52.156;5.382;2024-03-23T09:29:40;2.03;;;0.88;;
26042;SDS011;13818;52.156;5.382;2024-03-23T09:32:07;1.95;;;0.60;;
26042;SDS011;13818;52.156;5.382;2024-03-23T09:34:34;2.60;;;0.60;;
26042;SDS011;13818;52.156;5.382;2024-03-23T09:36:59;1.30;;;0.40;;
26042;SDS011;13818;52.156;5.382;2024-03-23T09:39:26;5.97;;;1.50;;
26042;SDS011;13818;52.156;5.382;2024-03-23T09:41:56;0.45;;;0.17;;
26042;SDS011;13818;52.156;5.382;2024-03-23T09:44:22;3.08;;;0.60;;
26042;SDS011;13818;52.156;5.382;2024-03-23T09:46:51;4.63;;;1.00;;
26042;SDS011;13818;52.156;5.382;2024-03-23T09:49:20;2.90;;;0.90;;
26042;SDS011;13818;52.156;5.382;2024-03-23T09:51:45;2.13;;;0.90;;
26042;SDS011;13818;52.156;5.382;2024-03-23T09:54:12;2.15;;;0.70;;
26042;SDS011;13818;52.156;5.382;2024-03-23T09:56:37;5.32;;;0.63;;
26042;SDS011;13818;52.156;5.382;2024-03-23T09:59:03;6.95;;;0.82;;
26042;SDS011;13818;52.156;5.382;2024-03-23T10:01:29;3.55;;;0.90;;
26042;SDS011;13818;52.156;5.382;2024-03-23T10:03:56;0.60;;;0.30;;
26042;SDS011;13818;52.156;5.382;2024-03-23T10:06:23;3.13;;;1.13;;
26042;SDS011;13818;52.156;5.382;2024-03-23T10:08:51;1.15;;;0.43;;
26042;SDS011;13818;52.156;5.382;2024-03-23T10:11:16;2.50;;;1.15;;
26042;SDS011;13818;52.156;5.382;2024-03-23T10:13:46;3.50;;;0.60;;
26042;SDS011;13818;52.156;5.382;2024-03-23T10:16:12;2.05;;;0.32;;
26042;SDS011;13818;52.156;5.382;2024-03-23T10:18:46;0.10;;;0.10;;
26042;SDS011;13818;52.156;5.382;2024-03-23T10:21:13;7.28;;;1.40;;
26042;SDS011;13818;52.156;5.382;2024-03-23T10:23:42;4.95;;;0.63;;
26042;SDS011;13818;52.156;5.382;2024-03-23T10:26:12;0.65;;;0.32;;
26042;SDS011;13818;52.156;5.382;2024-03-23T10:28:53;2.60;;;1.05;;
26042;SDS011;13818;52.156;5.382;2024-03-23T10:31:19;0.40;;;0.20;;
26042;SDS011;13818;52.156;5.382;2024-03-23T10:33:46;2.78;;;0.77;;
26042;SDS011;13818;52.156;5.382;2024-03-23T10:36:12;4.10;;;0.70;;
26042;SDS011;13818;52.156;5.382;2024-03-23T10:38:38;3.20;;;0.93;;
26042;SDS011;13818;52.156;5.382;2024-03-23T10:41:08;8.35;;;0.90;;
26042;SDS011;13818;52.156;5.382;2024-03-23T10:43:34;5.90;;;0.43;;
26042;SDS011;13818;52.156;5.382;2024-03-23T10:46:02;1.25;;;0.40;;
26042;SDS011;13818;52.156;5.382;2024-03-23T10:48:28;2.13;;;0.65;;
26042;SDS011;13818;52.156;5.382;2024-03-23T10:50:54;9.13;;;0.88;;
26042;SDS011;13818;52.156;5.382;2024-03-23T10:53:20;1.40;;;0.50;;
26042;SDS011;13818;52.156;5.382;2024-03-23T10:55:51;2.50;;;0.57;;
26042;SDS011;13818;52.156;5.382;2024-03-23T10:58:18;1.23;;;0.55;;
26042;SDS011;13818;52.156;5.382;2024-03-23T11:00:48;3.60;;;0.32;;
26042;SDS011;13818;52.156;5.382;2024-03-23T11:03:30;2.53;;;0.30;;
26042;SDS011;13818;52.156;5.382;2024-03-23T11:05:58;2.72;;;0.88;;
26042;SDS011;13818;52.156;5.382;2024-03-23T11:08:29;4.72;;;0.52;;
26042;SDS011;13818;52.156;5.382;2024-03-23T11:11:11;3.20;;;0.40;;
26042;SDS011;13818;52.156;5.382;2024-03-23T11:13:39;1.02;;;0.35;;
26042;SDS011;13818;52.156;5.382;2024-03-23T11:16:14;4.88;;;0.55;;
26042;SDS011;13818;52.156;5.382;2024-03-23T11:18:42;1.75;;;0.65;;
26042;SDS011;13818;52.156;5.382;2024-03-23T11:21:09;3.05;;;0.35;;
26042;SDS011;13818;52.156;5.382;2024-03-23T11:23:35;2.65;;;0.93;;
26042;SDS011;13818;52.156;5.382;2024-03-23T11:26:02;1.30;;;0.57;;
26042;SDS011;13818;52.156;5.382;2024-03-23T11:28:31;4.45;;;0.77;;
26042;SDS011;13818;52.156;5.382;2024-03-23T11:30:59;0.68;;;0.38;;
26042;SDS011;13818;52.156;5.382;2024-03-23T11:33:25;1.80;;;0.63;;
26042;SDS011;13818;52.156;5.382;2024-03-23T11:35:51;3.50;;;1.50;;
26042;SDS011;13818;52.156;5.382;2024-03-23T11:38:18;6.57;;;1.95;;
26042;SDS011;13818;52.156;5.382;2024-03-23T11:40:45;4.75;;;1.02;;
26042;SDS011;13818;52.156;5.382;2024-03-23T11:43:12;3.13;;;0.57;;
26042;SDS011;13818;52.156;5.382;2024-03-23T11:45:41;1.58;;;0.63;;
26042;SDS011;13818;52.156;5.382;2024-03-23T11:48:09;3.03;;;1.00;;
26042;SDS011;13818;52.156;5.382;2024-03-23T11:50:37;4.97;;;1.00;;
26042;SDS011;13818;52.156;5.382;2024-03-23T11:53:06;1.00;;;0.77;;
26042;SDS011;13818;52.156;5.382;2024-03-23T11:55:38;1.23;;;0.30;;
26042;SDS011;13818;52.156;5.382;2024-03-23T11:58:05;0.47;;;0.28;;
26042;SDS011;13818;52.156;5.382;2024-03-23T12:00:31;0.95;;;0.40;;
26042;SDS011;13818;52.156;5.382;2024-03-23T12:02:59;6.65;;;1.20;;
26042;SDS011;13818;52.156;5.382;2024-03-23T12:05:28;2.35;;;0.47;;
26042;SDS011;13818;52.156;5.382;2024-03-23T12:07:54;1.90;;;1.27;;
26042;SDS011;13818;52.156;5.382;2024-03-23T12:10:21;2.67;;;0.63;;
26042;SDS011;13818;52.156;5.382;2024-03-23T12:12:46;2.78;;;0.52;;
26042;SDS011;13818;52.156;5.382;2024-03-23T12:15:25;2.10;;;0.40;;
26042;SDS011;13818;52.156;5.382;2024-03-23T12:17:52;3.75;;;0.40;;
26042;SDS011;13818;52.156;5.382;2024-03-23T12:20:32;1.10;;;0.40;;
26042;SDS011;13818;52.156;5.382;2024-03-23T12:23:04;2.42;;;0.63;;
26042;SDS011;13818;52.156;5.382;2024-03-23T12:25:32;1.45;;;0.60;;
26042;SDS011;13818;52.156;5.382;2024-03-23T12:27:58;2.35;;;1.00;;
26042;SDS011;13818;52.156;5.382;2024-03-23T12:30:25;3.20;;;1.17;;
26042;SDS011;13818;52.156;5.382;2024-03-23T12:32:50;4.30;;;0.90;;
26042;SDS011;13818;52.156;5.382;2024-03-23T12:35:17;1.25;;;0.65;;
26042;SDS011;13818;52.156;5.382;2024-03-23T12:37:44;0.35;;;0.30;;
26042;SDS011;13818;52.156;5.382;2024-03-23T12:40:11;1.70;;;0.80;;
26042;SDS011;13818;52.156;5.382;2024-03-23T12:42:36;1.00;;;0.25;;
26042;SDS011;13818;52.156;5.382;2024-03-23T12:45:03;0.15;;;0.15;;
26042;SDS011;13818;52.156;5.382;2024-03-23T12:47:30;1.20;;;0.43;;
26042;SDS011;13818;52.156;5.382;2024-03-23T12:49:56;2.95;;;0.93;;
26042;SDS011;13818;52.156;5.382;2024-03-23T12:52:22;1.60;;;0.93;;
26042;SDS011;13818;52.156;5.382;2024-03-23T12:54:54;2.95;;;0.38;;
26042;SDS011;13818;52.156;5.382;2024-03-23T12:57:21;4.10;;;0.40;;
26042;SDS011;13818;52.156;5.382;2024-03-23T12:59:48;0.77;;;0.50;;
26042;SDS011;13818;52.156;5.382;2024-03-23T13:02:16;3.38;;;0.40;;
26042;SDS011;13818;52.156;5.382;2024-03-23T13:04:43;5.15;;;1.45;;
26042;SDS011;13818;52.156;5.382;2024-03-23T13:07:09;0.95;;;0.30;;
26042;SDS011;13818;52.156;5.382;2024-03-23T13:09:35;2.08;;;0.50;;
26042;SDS011;13818;52.156;5.382;2024-03-23T13:12:02;5.10;;;0.73;;
26042;SDS011;13818;52.156;5.382;2024-03-23T13:14:29;6.47;;;1.08;;
26042;SDS011;13818;52.156;5.382;2024-03-23T13:16:54;0.73;;;0.35;;
26042;SDS011;13818;52.156;5.382;2024-03-23T13:19:21;3.28;;;0.73;;
26042;SDS011;13818;52.156;5.382;2024-03-23T13:21:51;1.80;;;0.93;;
26042;SDS011;13818;52.156;5.382;2024-03-23T13:24:21;1.75;;;0.40;;
26042;SDS011;13818;52.156;5.382;2024-03-23T13:26:47;1.58;;;1.00;;
26042;SDS011;13818;52.156;5.382;2024-03-23T13:29:14;1.33;;;0.35;;
26042;SDS011;13818;52.156;5.382;2024-03-23T13:31:40;1.90;;;0.55;;
26042;SDS011;13818;52.156;5.382;2024-03-23T13:34:06;0.95;;;0.20;;
26042;SDS011;13818;52.156;5.382;2024-03-23T13:36:32;1.08;;;0.05;;
26042;SDS011;13818;52.156;5.382;2024-03-23T13:38:58;0.50;;;0.22;;
26042;SDS011;13818;52.156;5.382;2024-03-23T13:41:24;1.02;;;0.43;;
26042;SDS011;13818;52.156;5.382;2024-03-23T13:43:51;0.77;;;0.10;;
26042;SDS011;13818;52.156;5.382;2024-03-23T13:46:18;3.80;;;0.60;;
26042;SDS011;13818;52.156;5.382;2024-03-23T13:48:44;0.98;;;0.63;;
26042;SDS011;13818;52.156;5.382;2024-03-23T13:51:10;0.73;;;0.30;;
26042;SDS011;13818;52.156;5.382;2024-03-23T13:53:36;4.22;;;0.40;;
26042;SDS011;13818;52.156;5.382;2024-03-23T13:56:02;2.88;;;0.65;;
26042;SDS011;13818;52.156;5.382;2024-03-23T13:58:29;4.18;;;0.40;;
26042;SDS011;13818;52.156;5.382;2024-03-23T14:00:56;0.17;;;0.10;;
26042;SDS011;13818;52.156;5.382;2024-03-23T14:03:24;0.40;;;0.30;;
26042;SDS011;13818;52.156;5.382;2024-03-23T14:05:49;1.67;;;0.47;;
26042;SDS011;13818;52.156;5.382;2024-03-23T14:08:17;1.88;;;0.77;;
26042;SDS011;13818;52.156;5.382;2024-03-23T14:10:43;1.55;;;0.20;;
26042;SDS011;13818;52.156;5.382;2024-03-23T14:13:09;3.95;;;0.80;;
26042;SDS011;13818;52.156;5.382;2024-03-23T14:15:35;2.00;;;0.57;;
26042;SDS011;13818;52.156;5.382;2024-03-23T14:18:03;2.35;;;0.50;;
26042;SDS011;13818;52.156;5.382;2024-03-23T14:20:32;1.75;;;0.40;;
26042;SDS011;13818;52.156;5.382;2024-03-23T14:22:59;1.17;;;0.32;;
26042;SDS011;13818;52.156;5.382;2024-03-23T14:25:25;2.30;;;0.60;;
26042;SDS011;13818;52.156;5.382;2024-03-23T14:27:54;3.10;;;0.85;;
26042;SDS011;13818;52.156;5.382;2024-03-23T14:30:20;2.75;;;0.28;;
26042;SDS011;13818;52.156;5.382;2024-03-23T14:32:46;0.98;;;0.43;;
26042;SDS011;13818;52.156;5.382;2024-03-23T14:35:12;1.40;;;0.43;;
26042;SDS011;13818;52.156;5.382;2024-03-23T14:37:39;2.75;;;0.80;;
26042;SDS011;13818;52.156;5.382;2024-03-23T14:40:07;0.88;;;0.35;;
26042;SDS011;13818;52.156;5.382;2024-03-23T14:42:34;2.70;;;0.55;;
26042;SDS011;13818;52.156;5.382;2024-03-23T14:44:59;1.48;;;0.28;;
26042;SDS011;13818;52.156;5.382;2024-03-23T14:47:26;4.50;;;0.85;;
26042;SDS011;13818;52.156;5.382;2024-03-23T14:49:51;1.10;;;0.30;;
26042;SDS011;13818;52.156;5.382;2024-03-23T14:52:18;5.05;;;0.63;;
26042;SDS011;13818;52.156;5.382;2024-03-23T14:54:46;2.22;;;0.70;;
26042;SDS011;13818;52.156;5.382;2024-03-23T14:57:12;4.85;;;0.52;;
26042;SDS011;13818;52.156;5.382;2024-03-23T14:59:39;0.85;;;0.30;;
26042;SDS011;13818;52.156;5.382;2024-03-23T15:02:05;5.63;;;0.70;;
26042;SDS011;13818;52.156;5.382;2024-03-23T15:04:32;3.65;;;0.63;;
26042;SDS011;13818;52.156;5.382;2024-03-23T15:06:58;2.10;;;0.88;;
26042;SDS011;13818;52.156;5.382;2024-03-23T15:09:25;0.52;;;0.20;;
26042;SDS011;13818;52.156;5.382;2024-03-23T15:11:51;1.92;;;0.82;;
26042;SDS011;13818;52.156;5.382;2024-03-23T15:14:19;1.77;;;0.55;;
26042;SDS011;13818;52.156;5.382;2024-03-23T15:16:45;3.95;;;0.80;;
26042;SDS011;13818;52.156;5.382;2024-03-23T15:21:39;2.25;;;0.15;;
26042;SDS011;13818;52.156;5.382;2024-03-23T15:24:06;4.50;;;0.93;;
26042;SDS011;13818;52.156;5.382;2024-03-23T15:26:35;2.60;;;0.70;;
26042;SDS011;13818;52.156;5.382;2024-03-23T15:29:03;2.22;;;0.95;;
26042;SDS011;13818;52.156;5.382;2024-03-23T15:31:35;4.93;;;0.35;;
26042;SDS011;13818;52.156;5.382;2024-03-23T15:34:01;1.08;;;0.35;;
26042;SDS011;13818;52.156;5.382;2024-03-23T15:36:27;4.95;;;0.65;;
26042;SDS011;13818;52.156;5.382;2024-03-23T15:38:54;4.47;;;0.52;;
26042;SDS011;13818;52.156;5.382;2024-03-23T15:41:20;4.20;;;0.60;;